Time;durP1;ratioP1;P1;durP2;ratioP2;P2;SDS_P1;SDS_P2;PMS_P1;PMS_P2;Temp;Humidity;BMP_temperature;BMP_pressure;BME280_temperature;BME280_humidity;BME280_pressure;Samples;Min_cycle;Max_cycle;Signal;HPM_P1;HPM_P2
2022/04/17 00:01:03;;;;;;;31.13;15.05;;;18.90;36.90;;;;;;5170487;27;46851;-21
2022/04/17 00:03:29;;;;;;;30.17;16.13;;;18.90;37.00;;;;;;5170348;27;49071;-13
2022/04/17 00:05:57;;;;;;;30.80;14.93;;;18.90;36.90;;;;;;5170079;27;47132;-21
2022/04/17 00:08:24;;;;;;;31.13;15.30;;;18.90;37.00;;;;;;5170360;27;46854;-13
2022/04/17 00:10:52;;;;;;;27.38;14.27;;;18.80;36.90;;;;;;5170288;27;47274;-21
2022/04/17 00:13:20;;;;;;;29.30;14.25;;;18.80;36.90;;;;;;5170048;27;48019;-12
2022/04/17 00:15:46;;;;;;;26.95;13.40;;;18.80;36.80;;;;;;5170183;27;46955;-21
2022/04/17 00:18:13;;;;;;;26.42;13.75;;;18.80;37.00;;;;;;5170209;27;46867;-21
2022/04/17 00:20:40;;;;;;;29.75;13.43;;;18.80;36.90;;;;;;5170180;27;47276;-21
2022/04/17 00:23:08;;;;;;;25.30;13.77;;;18.80;36.80;;;;;;5170011;27;48258;-20
2022/04/17 00:25:34;;;;;;;23.27;12.32;;;18.70;36.50;;;;;;5169664;27;46732;-21
2022/04/17 00:28:01;;;;;;;24.45;13.07;;;18.70;36.70;;;;;;5169931;27;46839;-21
2022/04/17 00:30:28;;;;;;;22.48;11.00;;;18.70;36.70;;;;;;5170094;27;46891;-21
2022/04/17 00:32:54;;;;;;;20.52;11.50;;;18.70;36.70;;;;;;5169482;27;48802;-13
2022/04/17 00:35:21;;;;;;;21.08;11.02;;;18.70;36.50;;;;;;5169430;27;47114;-12
2022/04/17 00:37:48;;;;;;;21.08;10.30;;;18.70;36.40;;;;;;5169834;27;46992;-12
2022/04/17 00:40:16;;;;;;;18.70;10.32;;;18.60;36.30;;;;;;5169596;27;46884;-20
2022/04/17 00:42:43;;;;;;;21.83;10.57;;;18.60;36.40;;;;;;5169618;27;47963;-21
2022/04/17 00:45:10;;;;;;;19.63;10.25;;;18.60;36.40;;;;;;5169819;27;47093;-21
2022/04/17 00:47:36;;;;;;;17.02;9.82;;;18.60;36.30;;;;;;5169425;27;46882;-12
2022/04/17 00:50:05;;;;;;;18.45;10.13;;;18.50;36.20;;;;;;5169748;27;47309;-21
2022/04/17 00:52:32;;;;;;;19.40;9.82;;;18.50;36.20;;;;;;5169150;27;47892;-20
2022/04/17 00:55:01;;;;;;;17.92;9.50;;;18.50;36.20;;;;;;5169210;27;46995;-21
2022/04/17 00:57:29;;;;;;;17.45;9.45;;;18.50;36.20;;;;;;5169373;27;46982;-12
2022/04/17 00:59:56;;;;;;;16.83;7.95;;;18.50;36.20;;;;;;5169283;27;46960;-21
2022/04/17 01:02:22;;;;;;;18.00;8.70;;;18.50;36.30;;;;;;5169258;27;49109;-12
2022/04/17 01:04:49;;;;;;;16.63;8.43;;;18.40;36.20;;;;;;5168281;27;47041;-20
2022/04/17 01:07:16;;;;;;;16.85;8.32;;;18.40;36.20;;;;;;5169023;27;46938;-12
2022/04/17 01:09:43;;;;;;;13.15;8.18;;;18.40;36.20;;;;;;5169414;27;47073;-12
2022/04/17 01:12:10;;;;;;;14.50;7.93;;;18.40;36.20;;;;;;5168932;27;47803;-12
2022/04/17 01:14:39;;;;;;;16.50;7.90;;;18.40;36.20;;;;;;5168817;27;46919;-21
2022/04/17 01:17:06;;;;;;;13.93;7.20;;;18.30;36.20;;;;;;5168752;27;46831;-12
2022/04/17 01:19:35;;;;;;;13.82;6.78;;;18.30;36.20;;;;;;5169150;27;46926;-20
2022/04/17 01:22:04;;;;;;;13.20;6.97;;;18.30;36.30;;;;;;5168927;27;48960;-21
2022/04/17 01:27:15;;;;;;;13.27;6.88;;;18.30;36.30;;;;;;5168464;27;46947;-12
2022/04/17 01:29:42;;;;;;;12.48;7.10;;;18.20;36.20;;;;;;5169179;27;46955;-21
2022/04/17 01:32:10;;;;;;;13.18;6.85;;;18.20;36.30;;;;;;5168374;27;47888;-21
2022/04/17 01:34:37;;;;;;;9.90;5.85;;;18.20;36.20;;;;;;5168678;27;46850;-13
2022/04/17 01:37:05;;;;;;;10.55;6.43;;;18.20;36.30;;;;;;5168543;27;46995;-12
2022/04/17 01:39:32;;;;;;;10.02;5.95;;;18.10;36.20;;;;;;5168811;27;46897;-12
2022/04/17 01:41:59;;;;;;;11.35;6.20;;;18.10;36.20;;;;;;5167847;27;48769;-12
2022/04/17 01:44:28;;;;;;;11.38;6.45;;;18.10;36.30;;;;;;5168712;27;46915;-12
2022/04/17 01:46:54;;;;;;;9.68;6.25;;;18.10;36.30;;;;;;5168431;27;46904;-13
2022/04/17 01:49:21;;;;;;;9.73;5.13;;;18.10;36.20;;;;;;5168638;27;46936;-21
2022/04/17 01:51:49;;;;;;;7.60;5.10;;;18.10;36.20;;;;;;5168209;27;48738;-21
2022/04/17 01:54:17;;;;;;;11.10;5.82;;;18.00;36.20;;;;;;5168442;27;46875;-12
2022/04/17 01:56:44;;;;;;;8.52;5.22;;;18.00;36.20;;;;;;5168475;27;46865;-12
2022/04/17 01:59:11;;;;;;;10.55;5.50;;;18.00;36.10;;;;;;5168492;27;47085;-13
2022/04/17 02:01:38;;;;;;;10.35;5.45;;;18.00;36.10;;;;;;5168312;27;48166;-20
2022/04/17 02:04:05;;;;;;;10.18;5.40;;;18.00;36.30;;;;;;5168144;27;47123;-13
2022/04/17 02:06:32;;;;;;;8.25;4.88;;;17.90;36.20;;;;;;5168177;27;47001;-12
2022/04/17 02:08:59;;;;;;;9.10;5.03;;;17.90;36.20;;;;;;5168344;27;47299;-21
2022/04/17 02:11:27;;;;;;;7.90;4.38;;;17.90;36.30;;;;;;5168014;27;47932;-20
2022/04/17 02:13:54;;;;;;;7.65;4.63;;;17.80;36.20;;;;;;5168298;27;46816;-12
2022/04/17 02:16:21;;;;;;;7.10;4.50;;;17.80;36.20;;;;;;5171450;27;46749;-20
2022/04/17 02:18:48;;;;;;;8.90;5.13;;;17.80;36.20;;;;;;5172344;27;47177;-13
2022/04/17 02:21:14;;;;;;;6.90;4.07;;;17.80;36.10;;;;;;5171796;27;47872;-20
2022/04/17 02:23:42;;;;;;;6.30;4.30;;;17.80;36.80;;;;;;5171651;27;47003;-13
2022/04/17 02:26:08;;;;;;;7.38;4.18;;;17.70;36.20;;;;;;5171779;27;46930;-21
2022/04/17 02:28:38;;;;;;;7.47;4.30;;;17.70;36.20;;;;;;5172165;27;46906;-13
2022/04/17 02:31:05;;;;;;;6.63;4.20;;;17.70;36.20;;;;;;5171616;27;46950;-21
2022/04/17 02:33:32;;;;;;;5.57;3.85;;;17.70;36.20;;;;;;5171961;27;46904;-12
2022/04/17 02:35:59;;;;;;;7.72;4.32;;;17.60;36.00;;;;;;5171526;27;46877;-21
2022/04/17 02:38:25;;;;;;;8.32;4.00;;;17.60;36.10;;;;;;5172022;27;47304;-12
2022/04/17 02:40:52;;;;;;;6.10;3.95;;;17.60;36.10;;;;;;5171180;27;47947;-20
2022/04/17 02:43:19;;;;;;;6.93;3.90;;;17.60;36.20;;;;;;5171811;27;46786;-13
2022/04/17 02:45:47;;;;;;;6.38;3.88;;;17.60;36.20;;;;;;5171165;27;46955;-12
2022/04/17 02:48:13;;;;;;;5.15;3.42;;;17.50;36.10;;;;;;5171997;27;47274;-12
2022/04/17 02:50:40;;;;;;;7.03;4.22;;;17.50;36.10;;;;;;5171108;27;48906;-12
2022/04/17 02:53:06;;;;;;;6.32;3.50;;;17.50;36.10;;;;;;5171638;27;46801;-21
2022/04/17 02:55:33;;;;;;;5.13;3.30;;;17.50;36.10;;;;;;5171079;27;47003;-20
2022/04/17 02:58:00;;;;;;;4.32;3.38;;;17.50;36.20;;;;;;5171414;27;46928;-21
2022/04/17 03:00:27;;;;;;;4.07;3.13;;;17.40;36.20;;;;;;5170990;27;46823;-20
2022/04/17 03:05:39;;;;;;;5.50;3.22;;;17.40;36.20;;;;;;5168498;27;46917;-19
2022/04/17 03:08:07;;;;;;;4.10;2.97;;;17.40;36.20;;;;;;5171691;27;46989;-18
2022/04/17 03:10:34;;;;;;;6.07;3.10;;;17.30;36.10;;;;;;5170740;27;46787;-10
2022/04/17 03:13:00;;;;;;;3.60;2.80;;;17.30;36.00;;;;;;5171159;27;46862;-11
2022/04/17 03:15:27;;;;;;;4.35;2.83;;;17.30;36.10;;;;;;5171020;27;47029;-10
2022/04/17 03:17:55;;;;;;;4.55;3.08;;;17.30;36.00;;;;;;5171070;27;46947;-19
2022/04/17 03:20:22;;;;;;;3.85;2.90;;;17.20;36.00;;;;;;5170690;27;46935;-20
2022/04/17 03:22:49;;;;;;;4.72;2.92;;;17.20;36.00;;;;;;5170944;27;47024;-11
2022/04/17 03:25:16;;;;;;;4.72;3.08;;;17.20;36.00;;;;;;5170986;27;47072;-11
2022/04/17 03:27:46;;;;;;;4.70;2.78;;;17.20;35.90;;;;;;5170325;27;47021;-19
2022/04/17 03:30:14;;;;;;;3.08;2.53;;;17.20;36.00;;;;;;5170496;27;48797;-19
2022/04/17 03:32:41;;;;;;;3.42;2.33;;;17.10;35.90;;;;;;5170835;27;46901;-11
2022/04/17 03:35:10;;;;;;;4.07;2.70;;;17.10;35.90;;;;;;5170488;27;46997;-12
2022/04/17 03:37:36;;;;;;;5.93;3.10;;;17.10;35.80;;;;;;5170977;27;47039;-19
2022/04/17 03:40:04;;;;;;;3.92;2.88;;;17.10;36.00;;;;;;5170722;27;48332;-11
2022/04/17 03:42:32;;;;;;;3.97;2.53;;;17.10;35.90;;;;;;5170033;27;47136;-11
2022/04/17 03:44:59;;;;;;;3.13;2.40;;;17.10;35.80;;;;;;5170399;27;46861;-11
2022/04/17 03:47:25;;;;;;;2.88;2.33;;;17.10;36.40;;;;;;5170559;27;47114;-11
2022/04/17 03:49:52;;;;;;;3.33;2.55;;;17.00;35.90;;;;;;5170612;27;46904;-11
2022/04/17 03:52:20;;;;;;;3.40;2.75;;;17.00;35.80;;;;;;5170061;27;46815;-19
2022/04/17 03:54:47;;;;;;;3.22;2.25;;;17.00;35.80;;;;;;5170423;27;46884;-19
2022/04/17 03:57:13;;;;;;;2.50;2.13;;;17.00;35.80;;;;;;5170374;27;46916;-19
2022/04/17 03:59:40;;;;;;;3.95;2.30;;;17.00;35.80;;;;;;5170313;27;47046;-11
2022/04/17 04:02:07;;;;;;;3.03;2.25;;;17.00;35.80;;;;;;5170021;27;46902;-19
2022/04/17 04:04:34;;;;;;;3.60;2.55;;;16.90;35.80;;;;;;5170539;27;46985;-19
2022/04/17 04:07:01;;;;;;;3.08;2.50;;;16.90;35.80;;;;;;5170207;27;47173;-20
2022/04/17 04:09:29;;;;;;;2.50;2.30;;;16.90;35.80;;;;;;5170230;27;47940;-12
2022/04/17 04:11:55;;;;;;;2.53;2.13;;;16.90;35.80;;;;;;5169913;27;46869;-11
2022/04/17 04:14:22;;;;;;;3.25;2.22;;;16.80;35.70;;;;;;5170009;27;46816;-12
2022/04/17 04:16:49;;;;;;;3.30;2.20;;;16.80;35.70;;;;;;5169842;27;46936;-18
2022/04/17 04:19:15;;;;;;;2.92;2.10;;;16.80;35.80;;;;;;5169766;27;49070;-11
2022/04/17 04:21:48;;;;;;;3.10;2.20;;;16.80;35.80;;;;;;5169746;27;46975;-19
2022/04/17 04:24:15;;;;;;;2.85;2.30;;;16.70;35.80;;;;;;5169882;27;46879;-11
2022/04/17 04:26:44;;;;;;;2.50;2.17;;;16.70;35.80;;;;;;5170094;27;46889;-11
2022/04/17 04:29:09;;;;;;;2.30;2.10;;;16.70;35.90;;;;;;5169907;27;49152;-19
2022/04/17 04:31:36;;;;;;;2.58;1.95;;;16.70;35.80;;;;;;5169612;27;46831;-20
2022/04/17 04:34:03;;;;;;;1.90;1.80;;;16.70;35.80;;;;;;5170024;27;46880;-11
2022/04/17 04:36:30;;;;;;;2.67;2.15;;;16.70;35.80;;;;;;5169528;27;46901;-11
2022/04/17 04:38:57;;;;;;;2.22;1.88;;;16.60;35.80;;;;;;5169685;27;47939;-19
2022/04/17 04:41:23;;;;;;;2.53;2.10;;;16.60;35.90;;;;;;5168803;27;47427;-19
2022/04/17 04:43:51;;;;;;;2.78;2.10;;;16.60;35.80;;;;;;5169611;27;46811;-12
2022/04/17 04:46:18;;;;;;;2.35;1.80;;;16.60;35.70;;;;;;5169426;27;47119;-11
2022/04/17 04:51:29;;;;;;;2.20;1.80;;;16.60;35.80;;;;;;5167903;27;46918;-11
2022/04/17 04:53:56;;;;;;;2.13;1.92;;;16.50;35.70;;;;;;5169515;27;47081;-19
2022/04/17 04:56:23;;;;;;;2.72;2.00;;;16.50;35.70;;;;;;5169198;27;47258;-11
2022/04/17 04:58:51;;;;;;;2.50;1.77;;;16.50;35.70;;;;;;5169299;27;48220;-11
2022/04/17 05:01:18;;;;;;;2.33;1.80;;;16.50;35.80;;;;;;5169277;27;46863;-10
2022/04/17 05:03:44;;;;;;;2.13;1.88;;;16.50;35.70;;;;;;5169371;27;46811;-11
2022/04/17 05:06:11;;;;;;;2.10;1.90;;;16.50;35.80;;;;;;5169071;27;47242;-11
2022/04/17 05:08:38;;;;;;;2.42;2.20;;;16.40;35.80;;;;;;5169191;27;46984;-12
2022/04/17 05:11:05;;;;;;;2.20;1.98;;;16.40;35.70;;;;;;5169038;27;47024;-19
2022/04/17 05:13:31;;;;;;;1.92;1.80;;;16.40;35.80;;;;;;5169290;27;46852;-20
2022/04/17 05:15:59;;;;;;;1.80;1.70;;;16.40;35.80;;;;;;5169170;27;47278;-20
2022/04/17 05:18:26;;;;;;;1.98;1.80;;;16.40;35.80;;;;;;5169081;27;48043;-11
2022/04/17 05:20:54;;;;;;;2.65;1.80;;;16.40;35.70;;;;;;5168964;27;46871;-11
2022/04/17 05:23:25;;;;;;;2.15;1.90;;;16.40;35.80;;;;;;5169157;27;46929;-19
2022/04/17 05:25:53;;;;;;;2.88;1.85;;;16.40;35.80;;;;;;5169304;27;46993;-19
2022/04/17 05:28:19;;;;;;;2.03;1.75;;;16.30;35.70;;;;;;5168838;27;46932;-11
2022/04/17 05:30:46;;;;;;;1.80;1.70;;;16.30;35.60;;;;;;5168634;27;47677;-19
2022/04/17 05:33:14;;;;;;;3.03;1.80;;;16.30;35.70;;;;;;5168786;27;46799;-11
2022/04/17 05:35:41;;;;;;;1.85;1.60;;;16.30;35.60;;;;;;5168457;27;46984;-11
2022/04/17 05:38:08;;;;;;;1.80;1.70;;;16.30;35.60;;;;;;5168537;27;47831;-11
2022/04/17 05:40:36;;;;;;;1.98;1.77;;;16.30;35.60;;;;;;5168375;27;47072;-10
2022/04/17 05:43:02;;;;;;;1.50;1.40;;;16.30;35.50;;;;;;5168900;27;46854;-11
2022/04/17 05:45:29;;;;;;;1.50;1.40;;;16.30;35.50;;;;;;5168967;27;46812;-19
2022/04/17 05:47:56;;;;;;;1.77;1.52;;;16.30;35.60;;;;;;5168472;27;47939;-11
2022/04/17 05:50:24;;;;;;;2.45;1.90;;;16.30;35.60;;;;;;5167796;27;46987;-19
2022/04/17 05:52:51;;;;;;;1.67;1.58;;;16.30;35.60;;;;;;5168438;27;47030;-19
2022/04/17 05:55:18;;;;;;;2.25;1.70;;;16.30;35.60;;;;;;5168636;27;46933;-19
2022/04/17 05:57:44;;;;;;;1.70;1.58;;;16.30;35.60;;;;;;5168478;27;49048;-10
2022/04/17 06:00:12;;;;;;;2.17;1.50;;;16.20;35.50;;;;;;5168553;27;46931;-19
2022/04/17 06:02:39;;;;;;;2.00;1.63;;;16.20;35.50;;;;;;5168540;27;46894;-19
2022/04/17 06:05:07;;;;;;;2.50;1.80;;;16.20;35.50;;;;;;5168544;27;47322;-11
2022/04/17 06:07:35;;;;;;;2.50;1.92;;;16.20;35.50;;;;;;5168350;27;48880;-19
2022/04/17 06:10:02;;;;;;;1.88;1.63;;;16.20;35.50;;;;;;5168394;27;46984;-20
2022/04/17 06:12:29;;;;;;;2.25;1.65;;;16.20;35.50;;;;;;5168340;27;46913;-19
2022/04/17 06:14:56;;;;;;;1.67;1.52;;;16.20;35.50;;;;;;5168505;27;47333;-19
2022/04/17 06:17:22;;;;;;;1.52;1.42;;;16.20;35.50;;;;;;5168100;27;48005;-11
2022/04/17 06:19:49;;;;;;;2.08;1.73;;;16.20;35.40;;;;;;5168227;27;46803;-19
2022/04/17 06:22:17;;;;;;;1.80;1.52;;;16.20;35.50;;;;;;5168046;27;46808;-21
2022/04/17 06:24:45;;;;;;;1.75;1.65;;;16.20;35.50;;;;;;5168206;27;46900;-10
2022/04/17 06:27:12;;;;;;;2.00;1.80;;;16.20;35.40;;;;;;5168034;27;46916;-19
2022/04/17 06:29:39;;;;;;;2.08;1.83;;;16.20;35.50;;;;;;5167825;27;46754;-11
2022/04/17 06:32:07;;;;;;;2.10;1.90;;;16.20;35.50;;;;;;5167943;27;46779;-11
2022/04/17 06:34:33;;;;;;;1.67;1.58;;;16.20;35.50;;;;;;5168160;27;46986;-20
2022/04/17 06:37:00;;;;;;;1.50;1.40;;;16.20;35.50;;;;;;5167815;27;47818;-20
2022/04/17 06:39:27;;;;;;;1.98;1.77;;;16.20;35.50;;;;;;5167980;27;47453;-12
2022/04/17 06:41:57;;;;;;;2.30;1.80;;;16.20;35.60;;;;;;5167349;27;47023;-20
2022/04/17 06:44:23;;;;;;;1.88;1.67;;;16.20;35.60;;;;;;5167967;27;47365;-20
2022/04/17 06:46:50;;;;;;;1.77;1.55;;;16.20;35.50;;;;;;5167680;27;47930;-20
2022/04/17 06:49:17;;;;;;;1.55;1.45;;;16.20;35.60;;;;;;5167921;27;47229;-12
2022/04/17 06:51:43;;;;;;;2.30;1.67;;;16.30;35.60;;;;;;5167775;27;46923;-19
2022/04/17 06:54:10;;;;;;;2.15;1.42;;;16.20;35.50;;;;;;5167803;27;46884;-12
2022/04/17 06:56:37;;;;;;;1.55;1.45;;;16.30;36.20;;;;;;5167690;27;49075;-20
2022/04/17 06:59:05;;;;;;;1.90;1.50;;;16.30;35.60;;;;;;5167587;27;46874;-19
2022/04/17 07:01:32;;;;;;;1.92;1.60;;;16.30;35.60;;;;;;5168188;27;46877;-19
2022/04/17 07:03:59;;;;;;;1.40;1.30;;;16.30;35.60;;;;;;5171488;27;47157;-19
2022/04/17 07:06:26;;;;;;;1.38;1.27;;;16.30;35.60;;;;;;5170729;27;48752;-11
2022/04/17 07:08:52;;;;;;;1.85;1.63;;;16.30;35.50;;;;;;5171108;27;46916;-19
2022/04/17 07:11:22;;;;;;;1.60;1.50;;;16.30;35.60;;;;;;5171125;27;46916;-11
2022/04/17 07:13:49;;;;;;;1.50;1.40;;;16.30;35.50;;;;;;5171486;27;46951;-11
2022/04/17 07:16:17;;;;;;;1.70;1.60;;;16.30;35.50;;;;;;5170534;27;49079;-20
2022/04/17 07:18:44;;;;;;;1.35;1.25;;;16.30;35.60;;;;;;5171123;27;47061;-10
2022/04/17 07:21:10;;;;;;;1.67;1.55;;;16.30;35.50;;;;;;5170864;27;46999;-19
2022/04/17 07:23:37;;;;;;;2.38;1.40;;;16.40;35.60;;;;;;5171195;27;46991;-19
2022/04/17 07:26:04;;;;;;;1.65;1.55;;;16.30;35.60;;;;;;5170828;27;48859;-20
2022/04/17 07:28:31;;;;;;;1.50;1.40;;;16.30;35.60;;;;;;5170960;27;46771;-11
2022/04/17 07:30:57;;;;;;;1.88;1.50;;;16.40;35.50;;;;;;5170912;27;46988;-11
2022/04/17 07:33:25;;;;;;;1.52;1.30;;;16.40;35.50;;;;;;5170845;27;46923;-11
2022/04/17 07:35:52;;;;;;;1.63;1.48;;;16.40;35.50;;;;;;5170414;27;46915;-16
2022/04/17 07:38:19;;;;;;;1.50;1.40;;;16.40;35.60;;;;;;5170429;27;46796;-11
2022/04/17 07:40:46;;;;;;;1.55;1.45;;;16.40;35.50;;;;;;5169921;27;47024;-19
2022/04/17 07:43:13;;;;;;;1.55;1.35;;;16.40;35.60;;;;;;5171169;27;47083;-19
2022/04/17 07:45:39;;;;;;;1.48;1.30;;;16.40;35.50;;;;;;5170401;27;49141;-11
2022/04/17 07:48:06;;;;;;;2.20;1.30;;;16.40;35.50;;;;;;5170410;27;46968;-19
2022/04/17 07:50:35;;;;;;;1.50;1.40;;;16.50;35.60;;;;;;5170734;27;46973;-19
2022/04/17 07:53:01;;;;;;;1.30;1.20;;;16.50;35.60;;;;;;5170744;27;46888;-11
2022/04/17 07:55:28;;;;;;;1.45;1.35;;;16.50;35.50;;;;;;5170359;27;47951;-19
2022/04/17 07:58:03;;;;;;;1.40;1.30;;;16.50;35.50;;;;;;5170528;27;47186;-10
2022/04/17 08:00:32;;;;;;;1.42;1.20;;;16.50;35.50;;;;;;5170834;27;47015;-15
2022/04/17 08:03:07;;;;;;;1.38;1.27;;;16.50;35.50;;;;;;5170535;27;46833;-11
2022/04/17 08:05:36;;;;;;;1.40;1.30;;;16.60;35.50;;;;;;5170044;27;48091;-11
2022/04/17 08:08:03;;;;;;;1.67;1.38;;;16.60;35.50;;;;;;5170034;27;47697;-20
2022/04/17 08:10:30;;;;;;;1.40;1.30;;;16.60;35.50;;;;;;5170297;27;46815;-20
2022/04/17 08:12:57;;;;;;;1.38;1.20;;;16.60;35.50;;;;;;5170077;27;46973;-19
2022/04/17 08:15:24;;;;;;;1.20;1.10;;;16.60;35.50;;;;;;5170007;27;48786;-19
2022/04/17 08:17:50;;;;;;;1.40;1.30;;;16.60;35.50;;;;;;5169995;27;46917;-11
2022/04/17 08:20:17;;;;;;;1.58;1.40;;;16.60;35.40;;;;;;5169841;27;46826;-19
2022/04/17 08:22:46;;;;;;;1.45;1.33;;;16.70;35.40;;;;;;5170218;27;46889;-19
2022/04/17 08:25:12;;;;;;;1.50;1.13;;;16.70;35.40;;;;;;5169801;27;48006;-12
2022/04/17 08:27:45;;;;;;;1.05;1.02;;;16.70;35.50;;;;;;5169897;27;46814;-19
2022/04/17 08:30:12;;;;;;;1.08;1.08;;;16.70;35.50;;;;;;5169994;27;46921;-19
2022/04/17 08:32:40;;;;;;;2.03;1.48;;;16.70;35.50;;;;;;5170024;27;46983;-11
2022/04/17 08:35:08;;;;;;;1.20;1.10;;;16.80;35.50;;;;;;5169536;27;48097;-11
2022/04/17 08:37:35;;;;;;;1.33;1.23;;;16.80;35.40;;;;;;5169253;27;46896;-10
2022/04/17 08:40:04;;;;;;;1.33;1.23;;;16.80;35.20;;;;;;5169848;27;46916;-11
2022/04/17 08:42:31;;;;;;;1.27;1.20;;;16.80;36.10;;;;;;5169339;27;46841;-20
2022/04/17 08:44:58;;;;;;;1.45;1.10;;;16.80;35.40;;;;;;5169614;27;46956;-19
2022/04/17 08:47:25;;;;;;;1.05;0.95;;;16.90;35.30;;;;;;5169130;27;46899;-19
2022/04/17 08:49:52;;;;;;;1.70;1.00;;;16.90;35.40;;;;;;5169397;27;46981;-10
2022/04/17 08:52:18;;;;;;;1.10;1.08;;;16.90;35.30;;;;;;5169406;27;46728;-19
2022/04/17 08:54:45;;;;;;;1.30;1.20;;;17.00;35.40;;;;;;5164390;27;48853;-20
2022/04/17 08:57:13;;;;;;;1.33;1.23;;;17.00;35.20;;;;;;5168921;27;46932;-13
2022/04/17 08:59:40;;;;;;;1.15;1.05;;;17.00;35.20;;;;;;5169393;27;47000;-11
2022/04/17 09:02:10;;;;;;;1.10;1.00;;;17.00;35.20;;;;;;5148296;27;46859;-11
2022/04/17 09:04:37;;;;;;;1.45;1.00;;;17.00;35.30;;;;;;5155752;27;48753;-19
2022/04/17 09:07:05;;;;;;;1.95;1.10;;;17.10;35.30;;;;;;5151208;27;46963;-10
2022/04/17 09:09:32;;;;;;;1.08;0.98;;;17.10;35.30;;;;;;5148458;27;46971;-19
2022/04/17 09:11:59;;;;;;;1.20;1.10;;;17.10;35.30;;;;;;5147913;27;47309;-11
2022/04/17 09:14:27;;;;;;;1.10;1.10;;;17.20;35.30;;;;;;5154280;27;47974;-19
2022/04/17 09:16:54;;;;;;;1.30;1.20;;;17.20;35.20;;;;;;5167920;27;46975;-19
2022/04/17 09:19:20;;;;;;;1.45;1.15;;;17.20;35.10;;;;;;5168735;27;46996;-19
2022/04/17 09:21:47;;;;;;;1.42;1.30;;;17.20;35.20;;;;;;5169150;27;46904;-11
2022/04/17 09:24:15;;;;;;;0.88;0.88;;;17.20;35.10;;;;;;5167542;27;47065;-11
2022/04/17 09:26:50;;;;;;;1.08;1.02;;;17.20;35.10;;;;;;5168880;27;47068;-21
2022/04/17 09:29:21;;;;;;;1.08;1.08;;;17.30;35.20;;;;;;5169071;27;46801;-11
2022/04/17 09:31:49;;;;;;;1.33;1.10;;;17.30;35.90;;;;;;5169091;27;46967;-19
2022/04/17 09:34:16;;;;;;;1.13;1.05;;;17.30;35.20;;;;;;5166669;27;48731;-19
2022/04/17 09:36:43;;;;;;;1.00;1.00;;;17.30;35.20;;;;;;5168356;27;46922;-19
2022/04/17 09:39:14;;;;;;;1.13;1.00;;;17.40;35.20;;;;;;5168697;27;46885;-11
2022/04/17 09:41:57;;;;;;;1.10;1.10;;;17.40;35.10;;;;;;5168254;27;47140;-19
2022/04/17 09:44:45;;;;;;;1.42;0.95;;;17.40;35.80;;;;;;5168834;27;48882;-19
2022/04/17 09:47:17;;;;;;;1.35;1.20;;;17.40;35.10;;;;;;5168694;27;46850;-19
2022/04/17 09:49:54;;;;;;;1.20;1.08;;;17.50;35.10;;;;;;5168828;27;46795;-11
2022/04/17 09:52:21;;;;;;;1.45;1.17;;;17.50;35.00;;;;;;5168697;27;46806;-11
2022/04/17 09:54:48;;;;;;;1.10;1.00;;;17.50;34.90;;;;;;5168306;27;48206;-11
2022/04/17 09:57:19;;;;;;;0.98;0.90;;;17.60;34.80;;;;;;5168213;27;46977;-11
2022/04/17 09:59:45;;;;;;;0.90;0.90;;;17.60;34.70;;;;;;5168470;27;46745;-10
2022/04/17 10:02:12;;;;;;;1.20;1.08;;;17.60;34.60;;;;;;5168482;27;47086;-12
2022/04/17 10:04:41;;;;;;;1.10;0.95;;;17.70;34.70;;;;;;5168383;27;48117;-12
2022/04/17 10:07:08;;;;;;;1.10;0.90;;;17.70;34.60;;;;;;5168338;27;46914;-12
2022/04/17 10:09:35;;;;;;;3.75;1.00;;;17.70;34.50;;;;;;5168244;27;46980;-10
2022/04/17 10:12:02;;;;;;;2.50;1.20;;;17.80;34.40;;;;;;5168578;27;46805;-11
2022/04/17 10:14:29;;;;;;;1.52;1.10;;;17.80;34.40;;;;;;5168101;27;46868;-19
2022/04/17 10:16:56;;;;;;;1.30;1.20;;;17.80;34.40;;;;;;5167649;27;47074;-11
2022/04/17 10:19:24;;;;;;;2.58;1.00;;;17.90;34.40;;;;;;5168153;27;46915;-20
2022/04/17 10:21:52;;;;;;;1.98;0.98;;;17.90;35.00;;;;;;5167980;27;46814;-11
2022/04/17 10:24:20;;;;;;;1.05;1.00;;;18.00;34.30;;;;;;5168232;27;47736;-19
2022/04/17 10:26:47;;;;;;;0.88;0.85;;;18.00;34.40;;;;;;5167700;27;47062;-10
2022/04/17 10:29:18;;;;;;;0.95;0.80;;;18.10;34.30;;;;;;5168060;27;46925;-19
2022/04/17 10:31:50;;;;;;;0.82;0.82;;;18.10;34.30;;;;;;5167897;27;46844;-19
2022/04/17 10:34:35;;;;;;;2.83;1.02;;;18.10;34.40;;;;;;5168140;27;49065;-11
2022/04/17 10:37:33;;;;;;;1.13;1.02;;;18.20;34.10;;;;;;5126543;27;47189;-11
2022/04/17 10:40:01;;;;;;;1.92;1.10;;;18.20;34.00;;;;;;5171754;27;47004;-11
2022/04/17 10:42:34;;;;;;;1.17;1.00;;;18.30;34.00;;;;;;5171666;27;46850;-19
2022/04/17 10:45:04;;;;;;;1.20;1.10;;;18.30;34.10;;;;;;5171397;27;48053;-11
2022/04/17 10:47:31;;;;;;;1.55;1.08;;;18.40;33.90;;;;;;5164826;27;47086;-10
2022/04/17 10:49:58;;;;;;;0.73;0.73;;;18.40;34.30;;;;;;5151924;27;46848;-11
2022/04/17 10:52:30;;;;;;;2.60;1.33;;;18.50;33.60;;;;;;5150599;27;46880;-19
2022/04/17 10:54:57;;;;;;;2.65;1.00;;;18.60;33.40;;;;;;5150202;27;48260;-20
2022/04/17 10:57:25;;;;;;;3.13;1.20;;;18.60;33.00;;;;;;5149010;27;46974;-12
2022/04/17 11:00:07;;;;;;;2.13;1.00;;;18.70;33.00;;;;;;5159636;27;47071;-19
2022/04/17 11:02:33;;;;;;;2.15;0.90;;;18.80;32.80;;;;;;5170588;27;47137;-12
2022/04/17 11:05:00;;;;;;;5.85;1.00;;;18.80;32.60;;;;;;5170936;27;46811;-19
2022/04/17 11:07:29;;;;;;;2.70;1.15;;;18.90;32.80;;;;;;5171256;27;47317;-19
2022/04/17 11:10:20;;;;;;;5.85;1.08;;;19.00;32.80;;;;;;5170857;27;46823;-20
2022/04/17 11:12:48;;;;;;;1.08;0.98;;;19.10;32.90;;;;;;5170289;27;46965;-11
2022/04/17 11:15:25;;;;;;;1.65;0.93;;;19.20;33.70;;;;;;5169645;27;47068;-11
2022/04/17 11:17:52;;;;;;;1.42;1.05;;;19.20;33.10;;;;;;5163368;27;46911;-19
2022/04/17 11:20:19;;;;;;;4.07;1.10;;;19.30;33.00;;;;;;5168435;27;47252;-19
2022/04/17 11:22:47;;;;;;;1.52;1.05;;;19.40;32.90;;;;;;5169967;27;47131;-19
2022/04/17 11:25:14;;;;;;;1.65;1.00;;;19.50;32.80;;;;;;5170190;27;46912;-11
2022/04/17 11:27:42;;;;;;;2.15;0.90;;;19.60;33.00;;;;;;5169808;27;46928;-19
2022/04/17 11:30:09;;;;;;;1.13;1.00;;;19.60;32.50;;;;;;5169524;27;46837;-11
2022/04/17 11:32:52;;;;;;;0.95;0.75;;;19.70;32.70;;;;;;5166817;27;47219;-12
2022/04/17 11:35:20;;;;;;;3.67;1.08;;;19.80;32.50;;;;;;5168931;27;48789;-20
2022/04/17 11:37:52;;;;;;;1.88;1.05;;;19.90;32.20;;;;;;5170220;27;46856;-11
2022/04/17 11:40:20;;;;;;;1.02;1.00;;;19.90;32.10;;;;;;5169820;27;47992;-11
2022/04/17 11:42:47;;;;;;;1.23;1.00;;;20.00;31.80;;;;;;5169590;27;47007;-20
2022/04/17 11:45:16;;;;;;;0.90;0.77;;;20.10;31.60;;;;;;5169634;27;48817;-12
2022/04/17 11:47:43;;;;;;;1.15;0.80;;;20.20;31.50;;;;;;5169417;27;46977;-19
2022/04/17 11:50:10;;;;;;;1.65;0.90;;;20.20;31.60;;;;;;5170705;27;46802;-20
2022/04/17 11:52:37;;;;;;;3.75;1.00;;;20.30;31.60;;;;;;5170364;27;47290;-12
2022/04/17 11:55:07;;;;;;;2.60;1.15;;;20.40;31.50;;;;;;5169385;27;48083;-21
2022/04/17 11:57:33;;;;;;;1.02;1.00;;;20.40;31.30;;;;;;5170305;27;46853;-12
2022/04/17 12:00:00;;;;;;;1.58;0.90;;;20.50;31.20;;;;;;5170450;27;46812;-21
2022/04/17 12:02:28;;;;;;;1.20;0.95;;;20.50;31.20;;;;;;5170317;27;47328;-21
2022/04/17 12:04:56;;;;;;;2.88;0.90;;;20.60;30.80;;;;;;5168689;27;46910;-21
2022/04/17 12:07:23;;;;;;;1.63;0.90;;;20.70;30.90;;;;;;5163796;27;47178;-13
2022/04/17 12:09:50;;;;;;;0.70;0.70;;;20.70;30.80;;;;;;5158567;27;46831;-21
2022/04/17 12:12:19;;;;;;;1.55;0.90;;;20.80;30.70;;;;;;5149085;27;46982;-12
2022/04/17 12:14:46;;;;;;;0.80;0.80;;;20.90;30.70;;;;;;5149146;27;46886;-12
2022/04/17 12:17:14;;;;;;;3.40;0.93;;;20.90;30.50;;;;;;5148716;27;46899;-14
2022/04/17 12:19:49;;;;;;;1.23;0.95;;;21.00;30.40;;;;;;5148804;27;46888;-21
2022/04/17 12:22:17;;;;;;;0.82;0.80;;;21.00;30.00;;;;;;5156364;27;47177;-13
2022/04/17 12:24:44;;;;;;;1.73;1.10;;;21.10;30.30;;;;;;5165438;27;49064;-13
2022/04/17 12:27:11;;;;;;;1.33;0.80;;;21.10;30.20;;;;;;5168195;27;47055;-21
2022/04/17 12:29:40;;;;;;;2.22;0.90;;;21.20;30.10;;;;;;5168465;27;46946;-21
2022/04/17 12:32:13;;;;;;;0.75;0.75;;;21.30;30.20;;;;;;5168789;27;46917;-21
2022/04/17 12:34:45;;;;;;;1.88;0.75;;;21.40;30.10;;;;;;5167300;27;48120;-21
2022/04/17 12:37:20;;;;;;;0.60;0.60;;;21.40;30.00;;;;;;5169537;27;46801;-13
2022/04/17 12:39:47;;;;;;;1.17;0.90;;;21.40;29.90;;;;;;5169960;27;46892;-13
2022/04/17 12:42:17;;;;;;;0.93;0.70;;;21.40;29.70;;;;;;5169432;27;46990;-12
2022/04/17 12:44:47;;;;;;;1.33;0.75;;;21.50;29.80;;;;;;5169456;27;49224;-21
2022/04/17 12:47:13;;;;;;;1.35;0.80;;;21.50;29.70;;;;;;5169594;27;46808;-21
2022/04/17 12:49:40;;;;;;;0.60;0.60;;;21.60;29.60;;;;;;5169398;27;46759;-13
2022/04/17 12:52:07;;;;;;;1.10;0.60;;;21.70;29.50;;;;;;5169736;27;47289;-12
2022/04/17 12:54:35;;;;;;;3.50;0.70;;;21.70;29.40;;;;;;5169414;27;47963;-21
2022/04/17 12:57:02;;;;;;;1.85;0.70;;;21.80;29.50;;;;;;5168963;27;47135;-15